Nuiqsut, Alaska
Current Conditions -  °F | °C
As of 10:53 AM on Friday 24 Oct 2014 (Local Time) from PAQT Reporting Station
Overcast Overcast  
Wind Chill:   Ceiling: 9000
Heat Index: 20°   Visibility: 10mi
Dew Point: 15°   Wind: 17mph
Humidity: 81%   Direction: 90°E
Pressure: 29.76"   Gusts: NA
Location:  70.22°N, 150.98°W
Report Text: PAQT 241853Z AUTO 09015KT 10SM OVC090 M07/M09 A2976 RMK SLP080 T10671094 TSNO $ VIA AUTODIAL
Loading
Personal Weather Stations






























Interactive Weather Map
Tropical Storm Tracking
New forecast layout! Learn more

10-Day Weather Forecast

Advertisements
Track Severe Weather on mobile